• Join FlightAware (Why Join?)
  • Login
  • US Flag 
08:42AM EDT


 

Airport Tracker/Info


-or-


 

Live Flight TrackerFlight Track Log ✈ AWE3417 ✈ 08-Apr-2013 ✈ KMHT - KDCA

Flight Track Log - Related Links

Times and Time Zones

All times are in EDT time to prevent confusion due to time zone crossing. See the AWE3417 flight status page for this flight to view local times or setup timezone preferences in your user account.

Time Position Orientation Groundspeed Altitude Reporting Facility
EDT Latitude Longitude Course Direction KTS MPH feet Rate Location/Type
05:14PM 42.9500 -71.4333 202° Southwest 158 182 1,100  Level KA90
05:15PM 43.0028 -71.4692 334° Northwest 194 223 3,300 1,920 Climbing Boston Center
05:16PM 43.0532 -71.0905 65° Northeast  Level FlightAware Approximate
05:16PM 43.0397 -71.4061 51° Northeast 176 203 5,300  Level Boston Center
05:17PM 43.0745 -70.9701 132° Southeast  Level FlightAware Approximate
05:17PM 43.0469 -71.2894 85° East 218 251 8,200  Level Boston Center
05:18PM 43.0010 -70.8843 144° Southeast  Level FlightAware Approximate
05:18PM 43.0561 -71.1814 83° East 296 341 11,100  Level Boston Center
05:19PM 42.9137 -70.9054 202° Southwest  Level FlightAware Approximate
05:19PM 43.0756 -71.0472 79° East 333 383 14,200  Level Boston Center
05:20PM 43.0428 -70.9372 112° Southeast 323 372 16,600 2,280 Climbing Boston Center
05:21PM 42.9403 -70.9028 166° South 300 345 18,900 2,280 Climbing Boston Center
05:22PM 42.8469 -70.9478 199° South 319 367 21,200 2,280 Climbing Boston Center
05:23PM 42.7478 -70.9981 200° South 348 400 23,400 2,100 Climbing Boston Center
05:24PM 42.6442 -71.0486 200° South 379 436 25,400 1,800 Climbing Boston Center
05:25PM 42.5425 -71.0986 200° South 391 450 27,100 1,260 Climbing Boston Center
05:26PM 42.4411 -71.1572 203° Southwest 391 450 28,000 420 Climbing Boston Center
05:27PM 42.3839 -71.2708 236° Southwest 363 418 28,000  Level Boston Center
05:28PM 42.3497 -71.3978 250° West 353 406 28,000 60 Level Boston Center
05:29PM 42.3153 -71.5108 248° West 358 412 28,200 660 Climbing Boston Center
05:30PM 42.2683 -71.6461 245° Southwest 358 412 29,400 1,140 Climbing Boston Center
05:31PM 42.2275 -71.7756 247° West 364 419 30,500 1,140 Climbing Boston Center
05:32PM 42.1886 -71.9078 248° West 370 426 31,800 720 Climbing Boston Center
05:33PM 42.1456 -72.0369 246° West 383 441 32,000 60 Climbing Boston Center
05:34PM 42.1042 -72.1714 248° West 388 447 32,000  Level Boston Center
05:35PM 42.0628 -72.3031 247° West 388 447 32,000  Level Boston Center
05:36PM 42.0211 -72.4372 247° West 388 447 32,000  Level Boston Center
05:37PM 41.9731 -72.5686 244° Southwest 394 453 32,000  Level Boston Center
05:38PM 41.9083 -72.6661 228° Southwest 394 453 32,000  Level Boston Center
05:39PM 41.8350 -72.7744 228° Southwest 394 453 32,000  Level Boston Center
05:40PM 41.7514 -72.8992 228° Southwest 413 475 32,000  Level Boston Center
05:41PM 41.6758 -73.0100 228° Southwest 413 475 32,000  Level Boston Center
05:42PM 41.6003 -73.1203 228° Southwest 408 470 32,000  Level Boston Center
05:43PM 41.5411 -73.2083 228° Southwest 408 470 32,000  Level Boston Center
05:45PM 41.3836 -73.4342 227° Southwest 405 466 32,000  Level New York Center
05:46PM 41.3081 -73.5442 228° Southwest 411 473 32,000  Level New York Center
05:47PM 41.2389 -73.6600 232° Southwest 411 473 32,000  Level New York Center
05:48PM 41.1692 -73.7728 231° Southwest 401 461 32,000  Level New York Center
05:49PM 41.1017 -73.8853 231° Southwest 396 456 32,000  Level New York Center
05:50PM 41.0361 -74.0006 233° Southwest 396 456 32,000  Level New York Center
05:51PM 40.9664 -74.1125 231° Southwest 396 456 32,000  Level New York Center
05:52PM 40.9031 -74.2167 231° Southwest 396 456 32,000  Level New York Center
05:53PM 40.8308 -74.3308 230° Southwest 401 461 32,000  Level New York Center
05:54PM 40.7628 -74.4450 232° Southwest 406 467 32,000  Level New York Center
05:55PM 40.6947 -74.5592 232° Southwest 406 467 32,000 -480 Level New York Center
05:56PM 40.6242 -74.6728 231° Southwest 406 467 31,100 -1,260 Descending New York Center
05:57PM 40.5517 -74.7861 230° Southwest 406 467 29,600 -1,500 Descending New York Center
05:58PM 40.4728 -74.8961 227° Southwest 417 480 28,200 -1,380 Descending New York Center
05:59PM 40.3981 -75.0061 228° Southwest 417 480 26,900 -1,380 Descending New York Center
06:00PM 40.3211 -75.1131 227° Southwest 417 480 25,500 -1,380 Descending New York Center
06:01PM 40.2486 -75.2200 228° Southwest 411 473 24,200 -1,380 Descending New York Center
06:02PM 40.1781 -75.3186 227° Southwest 392 451 22,800 -1,140 Descending New York Center
06:03PM 40.1053 -75.4169 226° Southwest 386 444 22,000 -420 Descending New York Center
06:04PM 40.0350 -75.5128 226° Southwest 381 438 22,000  Level New York Center
06:05PM 39.9642 -75.6136 228° Southwest 381 438 22,000  Level New York Center
06:06PM 39.8972 -75.7144 229° Southwest 381 438 22,000  Level New York Center
06:07PM 39.8406 -75.8267 237° Southwest 381 438 22,000 -660 Level New York Center
06:08PM 39.7814 -75.9386 236° Southwest 376 433 20,700 -1,260 Descending New York Center
06:09PM 39.7269 -76.0397 235° Southwest 363 418 19,500 -900 Descending New York Center
06:10PM 39.6747 -76.1331 234° Southwest 315 362 19,000 -720 Descending New York Center
06:11PM 39.6356 -76.2164 239° Southwest 305 351 18,100 -1,380 Descending New York Center
06:12PM 39.5789 -76.3089 232° Southwest 299 344 16,400 -1,380 Descending New York Center
06:13PM 39.4833 -76.4000 216° Southwest 299 344 14,800 -1,560 Descending Potomac TRACON
06:14PM 39.4000 -76.4667 212° Southwest 300 345 12,600 -2,160 Descending Potomac TRACON
06:15PM 39.3333 -76.5167 210° Southwest 280 322 10,500 -1,320 Descending Potomac TRACON
06:16PM 39.2667 -76.5667 210° Southwest 271 312 10,000 -300 Descending Potomac TRACON
06:17PM 39.2167 -76.6333 226° Southwest 279 321 10,000  Level Potomac TRACON
06:18PM 39.1500 -76.6833 210° Southwest 269 310 10,000 -180 Level Potomac TRACON
06:19PM 39.1000 -76.7500 226° Southwest 273 314 9,700 -960 Descending Potomac TRACON
06:21PM 39.0333 -76.8167 218° Southwest 257 296 8,000 -1,320 Descending Potomac TRACON
06:22PM 38.9833 -76.8833 226° Southwest 252 290 7,000 -540 Descending Potomac TRACON
06:22PM 38.9667 -76.9500 252° West 217 250 7,000  Level Potomac TRACON
06:23PM 38.9833 -77.0167 288° West 210 242 7,000  Level Potomac TRACON
06:24PM 39.0167 -77.0833 303° West 232 267 7,000  Level Potomac TRACON
06:25PM 39.0667 -77.1333 322° Northwest 234 269 7,000  Level Potomac TRACON
06:26PM 39.1167 -77.2000 314° West 225 259 7,000  Level Potomac TRACON
06:27PM 39.1167 -77.2667 270° West 174 200 7,000 -660 Level Potomac TRACON
06:28PM 39.1000 -77.2833 218° Southwest 184 212 5,700 -1,260 Descending Potomac TRACON
06:29PM 39.0500 -77.2500 153° Southeast 175 201 4,500 -1,380 Descending Potomac TRACON
06:30PM 39.0167 -77.2167 142° Southeast 190 219 3,000 -900 Descending Potomac TRACON
06:31PM 38.9667 -77.1667 142° Southeast 198 228 2,700 -720 Descending Potomac TRACON
06:32PM 38.9333 -77.1167 131° Southeast 191 220 1,600 -1,140 Descending Potomac TRACON